Time;durP1;ratioP1;P1;durP2;ratioP2;P2;SDS_P1;SDS_P2;PMS_P1;PMS_P2;Temp;Humidity;BMP_temperature;BMP_pressure;BME280_temperature;BME280_humidity;BME280_pressure;Samples;Min_cycle;Max_cycle;Signal;HPM_P1;HPM_P2
2021/10/18 00:01:57;;;;;;;12.25;7.37;;;;;;;4.92;59.66;99734.82;1791497;80;21119;-36
2021/10/18 00:04:24;;;;;;;16.57;8.48;;;;;;;4.96;59.71;99733.87;1791863;80;21047;-36
2021/10/18 00:06:50;;;;;;;14.98;7.97;;;;;;;5.02;59.80;99739.91;1791591;80;21047;-36
2021/10/18 00:09:17;;;;;;;14.47;6.87;;;;;;;5.09;59.77;99738.33;1791665;80;20975;-36
2021/10/18 00:11:45;;;;;;;15.95;7.97;;;;;;;5.23;59.99;99728.77;1791619;80;20937;-36
2021/10/18 00:14:12;;;;;;;18.50;8.48;;;;;;;5.39;59.90;99724.53;1791334;80;21064;-36
2021/10/18 00:16:40;;;;;;;15.35;7.67;;;;;;;5.45;59.91;99725.16;1791675;80;21521;-36
2021/10/18 00:19:07;;;;;;;17.12;9.08;;;;;;;5.51;59.78;99716.63;1791556;80;21077;-36
2021/10/18 00:21:35;;;;;;;23.73;9.43;;;;;;;5.57;59.75;99715.89;1791331;79;21495;-36
2021/10/18 00:24:05;;;;;;;17.45;9.00;;;;;;;5.62;59.75;99714.39;1791429;80;20913;-36
2021/10/18 00:26:33;;;;;;;16.73;8.30;;;;;;;5.67;59.76;99718.27;1791555;80;21075;-36
2021/10/18 00:29:01;;;;;;;16.95;8.93;;;;;;;5.72;59.68;99713.27;1791238;80;20952;-36
2021/10/18 00:31:28;;;;;;;17.25;9.68;;;;;;;5.77;59.65;99720.63;1791543;80;21069;-36
2021/10/18 00:33:55;;;;;;;15.68;8.58;;;;;;;5.83;59.63;99719.91;1791241;80;21008;-36
2021/10/18 00:36:22;;;;;;;17.62;9.35;;;;;;;5.88;59.63;99710.36;1791409;80;21047;-36
2021/10/18 00:38:49;;;;;;;16.27;9.03;;;;;;;5.94;59.52;99714.48;1791439;80;22146;-36
2021/10/18 00:41:17;;;;;;;15.53;9.40;;;;;;;5.98;59.43;99714.06;1791126;80;20991;-36
2021/10/18 00:43:46;;;;;;;19.50;9.53;;;;;;;6.00;59.43;99710.52;1791370;80;21063;-36
2021/10/18 00:46:23;;;;;;;19.12;9.18;;;;;;;6.02;59.42;99705.58;1791318;80;20972;-36
2021/10/18 00:48:51;;;;;;;18.87;9.18;;;;;;;6.05;59.45;99699.00;1791430;80;21023;-37
2021/10/18 00:51:21;;;;;;;16.95;9.13;;;;;;;6.07;59.38;99704.06;1791259;80;21104;-37
2021/10/18 00:53:48;;;;;;;17.63;8.50;;;;;;;6.11;59.42;99699.62;1791678;80;21023;-36
2021/10/18 00:56:14;;;;;;;15.80;9.63;;;;;;;6.15;59.60;99697.86;1760700;80;21031;-36
2021/10/18 00:58:42;;;;;;;19.23;8.98;;;;;;;6.19;59.70;99700.17;1791456;80;21522;-36
2021/10/18 01:01:09;;;;;;;14.38;7.85;;;;;;;6.22;59.48;99698.17;1760492;80;21553;-36
2021/10/18 01:03:36;;;;;;;14.28;8.25;;;;;;;6.25;59.33;99694.82;1791555;80;21812;-36
2021/10/18 01:06:03;;;;;;;14.10;8.75;;;;;;;6.27;59.21;99690.47;1791517;80;20948;-36
2021/10/18 01:08:31;;;;;;;18.92;9.10;;;;;;;6.29;59.18;99693.09;1791548;80;21459;-36
2021/10/18 01:10:57;;;;;;;16.42;8.80;;;;;;;6.30;59.05;99684.43;1791850;80;20948;-36
2021/10/18 01:13:24;;;;;;;18.50;9.15;;;;;;;6.33;59.08;99682.45;1791792;80;21055;-36
2021/10/18 01:15:50;;;;;;;19.73;9.30;;;;;;;6.36;58.96;99692.02;1791785;80;21055;-36
2021/10/18 01:18:17;;;;;;;17.73;8.75;;;;;;;6.36;58.91;99692.02;1791438;80;21043;-37
2021/10/18 01:20:43;;;;;;;17.73;8.90;;;;;;;6.36;58.96;99683.94;1791298;80;21106;-36
2021/10/18 01:23:10;;;;;;;15.40;8.80;;;;;;;6.36;59.00;99691.22;1791276;79;21534;-36
2021/10/18 01:25:38;;;;;;;17.67;9.15;;;;;;;6.36;59.11;99681.24;1791413;80;21078;-36
2021/10/18 01:28:04;;;;;;;18.67;8.75;;;;;;;6.37;59.07;99684.73;1791627;80;21068;-36
2021/10/18 01:30:31;;;;;;;14.13;8.28;;;;;;;6.36;59.09;99683.94;1791202;80;20992;-36
2021/10/18 01:32:58;;;;;;;19.32;8.35;;;;;;;6.38;59.05;99690.36;1791693;80;21098;-36
2021/10/18 01:35:24;;;;;;;17.90;8.85;;;;;;;6.38;58.98;99689.01;1791162;80;21022;-36
2021/10/18 01:37:51;;;;;;;17.82;8.78;;;;;;;6.36;59.07;99687.98;1791607;80;21019;-36
2021/10/18 01:40:20;;;;;;;17.77;8.70;;;;;;;6.36;59.13;99696.05;1783167;80;21171;-36
2021/10/18 01:42:47;;;;;;;19.82;8.90;;;;;;;6.38;59.18;99690.36;1783627;80;21001;-37
2021/10/18 01:45:16;;;;;;;19.02;8.95;;;;;;;6.36;58.99;99686.63;1783271;80;21068;-36
2021/10/18 01:47:43;;;;;;;16.60;8.63;;;;;;;6.36;59.00;99690.67;1783539;80;21023;-36
2021/10/18 01:50:19;;;;;;;15.80;8.90;;;;;;;6.37;59.01;99690.91;1783118;80;21020;-36
2021/10/18 01:52:47;;;;;;;14.50;8.13;;;;;;;6.39;59.01;99683.28;1782845;79;21608;-36
2021/10/18 01:55:14;;;;;;;16.90;7.85;;;;;;;6.43;58.89;99695.02;1783023;80;21202;-36
2021/10/18 01:57:40;;;;;;;18.25;8.53;;;;;;;6.45;58.91;99686.03;1783719;80;20968;-36
2021/10/18 02:00:08;;;;;;;13.18;7.35;;;;;;;6.47;58.92;99687.86;1783156;80;21001;-36
2021/10/18 02:02:37;;;;;;;11.97;7.78;;;;;;;6.49;58.79;99687.52;1781561;80;21577;-37
2021/10/18 02:05:04;;;;;;;16.57;8.38;;;;;;;6.51;58.73;99686.64;1777593;80;21125;-36
2021/10/18 02:07:31;;;;;;;14.95;7.47;;;;;;;6.49;58.59;99677.53;1783774;80;20945;-36
2021/10/18 02:09:59;;;;;;;17.20;7.28;;;;;;;6.51;58.57;99685.30;1783462;80;21616;-36
2021/10/18 02:12:26;;;;;;;13.08;7.22;;;;;;;6.53;58.62;99687.89;1783749;80;21036;-36
2021/10/18 02:14:53;;;;;;;15.25;7.12;;;;;;;6.58;58.71;99687.50;1783472;80;21004;-36
2021/10/18 02:17:20;;;;;;;13.20;7.35;;;;;;;6.60;58.40;99685.25;1783666;80;21080;-36
2021/10/18 02:19:48;;;;;;;13.03;7.30;;;;;;;6.61;58.58;99689.53;1782891;80;20956;-36
2021/10/18 02:22:14;;;;;;;12.07;7.37;;;;;;;6.64;58.64;99687.52;1783113;80;21530;-36
2021/10/18 02:24:41;;;;;;;17.12;7.17;;;;;;;6.66;58.44;99682.06;1783430;80;21593;-37
2021/10/18 02:27:08;;;;;;;15.32;7.22;;;;;;;6.66;58.44;99676.67;1783231;80;21016;-37
2021/10/18 02:29:35;;;;;;;14.55;6.92;;;;;;;6.67;58.22;99679.60;1783460;80;21177;-36
2021/10/18 02:32:02;;;;;;;13.25;7.17;;;;;;;6.67;58.36;99676.91;1783202;80;21040;-36
2021/10/18 02:34:29;;;;;;;12.43;6.85;;;;;;;6.65;58.13;99679.13;1783209;80;21015;-36
2021/10/18 02:37:58;;;;;;;13.68;6.92;;;;;;;6.72;58.01;99669.20;1779487;79;23204;-37
2021/10/18 02:40:24;;;;;;;10.45;6.75;;;;;;;6.64;58.11;99674.05;1738710;82;20962;-36
2021/10/18 02:42:51;;;;;;;13.35;7.05;;;;;;;6.67;58.33;99674.77;1738816;82;21940;-36
2021/10/18 02:45:17;;;;;;;12.37;6.80;;;;;;;6.32;58.25;99618.39;1738547;82;20966;-36
2021/10/18 02:47:44;;;;;;;14.38;7.22;;;;;;;6.69;58.22;99677.91;1738862;82;21017;-36
2021/10/18 02:50:10;;;;;;;11.78;7.03;;;;;;;6.71;58.15;99675.69;1738550;82;21584;-36
2021/10/18 02:52:37;;;;;;;13.38;6.70;;;;;;;6.71;58.25;99677.83;1728321;81;20953;-36
2021/10/18 02:55:05;;;;;;;12.03;6.42;;;;;;;6.74;58.23;99677.17;1726702;83;21134;-37
2021/10/18 02:57:31;;;;;;;13.10;6.60;;;;;;;6.77;58.28;99675.19;1726886;83;20930;-36
2021/10/18 03:00:02;;;;;;;13.25;6.62;;;;;;;6.78;58.13;99678.65;1726699;83;21348;-37
2021/10/18 03:02:30;;;;;;;10.13;6.50;;;;;;;6.79;58.24;99671.59;1727006;82;20965;-37
2021/10/18 03:04:56;;;;;;;11.12;7.15;;;;;;;6.80;57.93;99668.34;1726828;83;21510;-37
2021/10/18 03:07:23;;;;;;;13.70;6.70;;;;;;;6.81;57.90;99670.72;1727055;83;21083;-37
2021/10/18 03:09:49;;;;;;;14.95;7.00;;;;;;;6.83;57.87;99667.68;1726986;82;20968;-36
2021/10/18 03:12:16;;;;;;;13.30;6.78;;;;;;;6.83;57.82;99673.86;1727037;82;20997;-37
2021/10/18 03:14:42;;;;;;;15.93;6.40;;;;;;;6.87;57.91;99671.33;1726963;82;21076;-37
2021/10/18 03:17:08;;;;;;;14.23;6.33;;;;;;;6.88;57.98;99667.49;1726756;83;21049;-37
2021/10/18 03:19:35;;;;;;;11.60;6.45;;;;;;;6.88;57.73;99664.80;1726786;83;21861;-37
2021/10/18 03:22:03;;;;;;;14.65;6.70;;;;;;;6.86;57.85;99667.05;1726522;83;20937;-36
2021/10/18 03:24:30;;;;;;;14.98;6.22;;;;;;;6.87;57.95;99664.59;1726581;82;21093;-36
2021/10/18 03:26:56;;;;;;;12.82;6.42;;;;;;;6.87;57.85;99664.59;1727028;83;21460;-36
2021/10/18 03:29:23;;;;;;;11.33;6.53;;;;;;;6.87;57.73;99657.27;1726489;83;21036;-36
2021/10/18 03:31:50;;;;;;;16.45;6.87;;;;;;;6.86;57.60;99655.71;1727105;83;21091;-36
2021/10/18 03:34:16;;;;;;;11.30;6.05;;;;;;;6.87;57.83;99660.55;1726383;83;20976;-37
2021/10/18 03:36:43;;;;;;;12.98;6.53;;;;;;;6.88;57.90;99663.45;1726768;82;21507;-36
2021/10/18 03:39:11;;;;;;;13.48;6.72;;;;;;;6.88;57.80;99650.77;1726891;82;21033;-36
2021/10/18 03:41:38;;;;;;;14.35;6.70;;;;;;;6.88;57.70;99654.81;1726954;83;21216;-36
2021/10/18 03:44:04;;;;;;;12.65;6.22;;;;;;;6.89;57.80;99646.96;1726804;83;21062;-36
2021/10/18 03:46:31;;;;;;;11.38;6.60;;;;;;;6.91;57.68;99653.38;1726938;82;21057;-37
2021/10/18 03:48:57;;;;;;;9.98;7.05;;;;;;;6.92;57.50;99650.34;1726345;83;20973;-36
2021/10/18 03:51:24;;;;;;;14.38;6.95;;;;;;;6.92;57.50;99650.92;1726583;81;20993;-37
2021/10/18 03:53:53;;;;;;;12.10;6.70;;;;;;;6.93;57.35;99644.39;1726444;82;21048;-36
2021/10/18 03:56:19;;;;;;;14.38;7.25;;;;;;;6.91;57.41;99650.13;1726372;83;21531;-37
2021/10/18 03:58:45;;;;;;;10.35;6.58;;;;;;;6.89;57.58;99653.70;1726523;83;20993;-37
2021/10/18 04:01:12;;;;;;;14.00;6.17;;;;;;;6.92;57.58;99652.27;1726390;83;21068;-37
2021/10/18 04:03:39;;;;;;;11.30;6.37;;;;;;;6.93;57.42;99652.48;1726561;82;20949;-36
2021/10/18 04:06:05;;;;;;;10.60;6.53;;;;;;;6.92;57.51;99649.58;1726633;83;21001;-36
2021/10/18 04:08:36;;;;;;;10.55;6.22;;;;;;;6.95;57.45;99655.65;1726657;82;21958;-36
2021/10/18 04:11:02;;;;;;;11.43;6.28;;;;;;;6.95;57.45;99648.91;1726834;82;21543;-36
2021/10/18 04:13:31;;;;;;;11.70;6.20;;;;;;;6.95;57.32;99650.26;1726580;83;21082;-37
2021/10/18 04:15:58;;;;;;;10.03;6.15;;;;;;;6.93;57.46;99646.53;1726298;82;21043;-36
2021/10/18 04:18:25;;;;;;;14.05;7.12;;;;;;;6.93;57.54;99645.73;1721402;83;21079;-36
2021/10/18 04:20:52;;;;;;;14.25;6.80;;;;;;;6.92;57.53;99647.64;1726748;83;22181;-36
2021/10/18 04:23:18;;;;;;;14.25;6.60;;;;;;;6.92;57.55;99648.23;1726134;83;20972;-37
2021/10/18 04:25:45;;;;;;;14.40;6.45;;;;;;;6.92;57.39;99648.23;1726436;82;20961;-36
2021/10/18 04:28:12;;;;;;;17.25;6.90;;;;;;;6.92;57.49;99644.19;1726246;83;21009;-36
2021/10/18 04:30:40;;;;;;;14.15;6.55;;;;;;;6.92;57.51;99646.88;1726326;82;21043;-36
2021/10/18 04:33:07;;;;;;;11.12;6.42;;;;;;;6.90;57.59;99647.20;1726328;83;21152;-36
2021/10/18 04:35:34;;;;;;;12.15;6.17;;;;;;;6.91;57.68;99646.64;1726644;83;20937;-36
2021/10/18 04:38:01;;;;;;;13.22;6.22;;;;;;;6.91;57.79;99654.17;1716460;82;21579;-36
2021/10/18 04:40:27;;;;;;;11.03;6.67;;;;;;;6.89;57.74;99656.95;1713884;83;20950;-36
2021/10/18 04:42:54;;;;;;;13.65;6.10;;;;;;;6.88;57.84;99660.75;1713564;83;21048;-36
2021/10/18 04:45:20;;;;;;;15.50;6.70;;;;;;;6.88;57.80;99658.06;1713913;83;21146;-36
2021/10/18 04:47:48;;;;;;;10.70;6.40;;;;;;;6.87;57.80;99659.96;1713787;83;20992;-36
2021/10/18 04:50:16;;;;;;;11.53;6.60;;;;;;;6.86;57.85;99663.80;1713695;83;21055;-36
2021/10/18 04:52:42;;;;;;;12.73;7.40;;;;;;;6.86;57.95;99671.88;1713727;82;20977;-37
2021/10/18 04:55:09;;;;;;;14.70;7.55;;;;;;;6.85;57.97;99669.50;1713836;83;21579;-37
2021/10/18 04:57:55;;;;;;;13.78;6.92;;;;;;;6.85;58.06;99665.46;1743072;81;21134;-36
2021/10/18 05:00:24;;;;;;;14.98;6.95;;;;;;;6.84;58.11;99667.92;1679252;85;21672;-36
2021/10/18 05:02:51;;;;;;;11.12;6.20;;;;;;;6.83;58.25;99671.72;1679269;85;21082;-36
2021/10/18 05:05:19;;;;;;;14.55;7.42;;;;;;;6.83;58.15;99675.77;1679034;85;21040;-37
2021/10/18 05:07:45;;;;;;;10.40;6.22;;;;;;;6.82;58.32;99680.39;1679182;85;21021;-37
2021/10/18 05:10:14;;;;;;;13.80;6.62;;;;;;;6.82;58.36;99679.05;1678884;85;21793;-36
2021/10/18 05:12:40;;;;;;;11.15;6.85;;;;;;;6.84;58.58;99685.44;1678711;85;21405;-36
2021/10/18 05:15:08;;;;;;;10.48;6.50;;;;;;;6.88;58.51;99685.80;1678814;85;20956;-37
2021/10/18 05:17:37;;;;;;;13.80;7.05;;;;;;;6.91;58.49;99681.68;1678160;85;20973;-36
2021/10/18 05:20:05;;;;;;;13.58;7.12;;;;;;;6.93;58.60;99683.47;1679103;85;21024;-36
2021/10/18 05:22:32;;;;;;;12.65;7.22;;;;;;;6.95;58.54;99688.78;1678881;85;21477;-36
2021/10/18 05:24:58;;;;;;;16.30;7.70;;;;;;;6.97;58.58;99687.12;1679029;85;20964;-36
2021/10/18 05:27:25;;;;;;;11.45;6.78;;;;;;;6.98;58.53;99688.67;1678910;85;21040;-37
2021/10/18 05:29:51;;;;;;;12.33;7.25;;;;;;;7.01;58.68;99692.08;1679028;85;21551;-36
2021/10/18 05:32:18;;;;;;;13.50;6.65;;;;;;;7.04;58.59;99690.06;1678711;85;21048;-36
2021/10/18 05:34:44;;;;;;;9.40;5.85;;;;;;;7.08;58.50;99696.37;1679252;85;21105;-36
2021/10/18 05:37:11;;;;;;;11.08;6.95;;;;;;;7.11;58.63;99694.95;1680818;85;21546;-37
2021/10/18 05:39:38;;;;;;;13.20;7.28;;;;;;;7.12;58.50;99695.16;1686314;85;21072;-36
2021/10/18 05:42:05;;;;;;;11.43;6.62;;;;;;;7.14;58.63;99701.02;1686218;85;21028;-36
2021/10/18 05:44:31;;;;;;;11.30;6.53;;;;;;;7.13;58.64;99705.63;1686228;85;21075;-36
2021/10/18 05:46:58;;;;;;;13.62;7.55;;;;;;;7.15;58.70;99708.80;1686400;85;21158;-36
2021/10/18 05:49:25;;;;;;;16.45;8.08;;;;;;;7.16;58.48;99706.33;1686281;85;21059;-37
2021/10/18 05:51:52;;;;;;;12.65;7.15;;;;;;;7.18;58.79;99713.52;1703543;83;21538;-36
2021/10/18 05:54:19;;;;;;;14.60;6.55;;;;;;;7.26;58.75;99715.94;1751144;81;20922;-36
2021/10/18 05:56:46;;;;;;;12.35;7.15;;;;;;;7.34;58.39;99715.88;1751109;82;21020;-36
2021/10/18 05:59:13;;;;;;;16.00;7.67;;;;;;;7.43;58.47;99721.98;1750979;82;21026;-37
2021/10/18 06:01:40;;;;;;;11.57;7.42;;;;;;;7.48;58.41;99725.59;1751169;82;21017;-36
2021/10/18 06:04:07;;;;;;;14.55;7.30;;;;;;;7.20;58.33;99682.98;1715005;83;20980;-36
2021/10/18 06:06:35;;;;;;;13.88;7.58;;;;;;;7.53;58.35;99719.45;1714981;83;20961;-37
2021/10/18 06:09:04;;;;;;;14.43;7.25;;;;;;;7.57;58.24;99722.27;1751048;81;21025;-36
2021/10/18 06:11:31;;;;;;;16.42;8.10;;;;;;;7.61;58.13;99724.53;1750652;81;21786;-36
2021/10/18 06:13:58;;;;;;;17.60;7.53;;;;;;;7.62;58.28;99731.51;1750769;82;20965;-37
2021/10/18 06:16:25;;;;;;;15.95;7.72;;;;;;;7.62;58.38;99730.95;1714788;83;21522;-36
2021/10/18 06:18:52;;;;;;;12.45;6.62;;;;;;;7.62;58.34;99726.11;1750916;81;21024;-36
2021/10/18 06:21:18;;;;;;;12.37;7.47;;;;;;;7.62;58.37;99732.86;1750910;81;21625;-37
2021/10/18 06:23:45;;;;;;;14.75;7.12;;;;;;;7.60;58.38;99730.48;1715038;83;21911;-37
2021/10/18 06:26:12;;;;;;;11.65;7.12;;;;;;;7.61;58.45;99731.27;1714743;83;21029;-37
2021/10/18 06:28:39;;;;;;;13.48;7.22;;;;;;;7.62;58.31;99738.25;1751010;81;21033;-36
2021/10/18 06:31:06;;;;;;;12.90;7.08;;;;;;;7.61;58.46;99738.81;1750867;82;21564;-37
2021/10/18 06:33:33;;;;;;;14.47;7.58;;;;;;;7.60;58.47;99741.86;1714967;83;21056;-37
2021/10/18 06:36:00;;;;;;;12.20;7.20;;;;;;;7.60;58.51;99747.26;1714898;83;21164;-37
2021/10/18 06:38:27;;;;;;;14.10;7.58;;;;;;;7.61;58.83;99749.61;1745277;81;21020;-36
2021/10/18 06:40:54;;;;;;;16.70;8.08;;;;;;;7.61;58.92;99750.16;1743051;81;20997;-36
2021/10/18 06:43:20;;;;;;;17.42;7.83;;;;;;;7.62;58.69;99747.70;1743091;82;20958;-36
2021/10/18 06:45:47;;;;;;;14.68;8.00;;;;;;;7.65;58.51;99745.12;1707589;83;21499;-37
2021/10/18 06:48:15;;;;;;;14.58;7.85;;;;;;;7.68;58.56;99747.73;1707535;84;21126;-37
2021/10/18 06:50:44;;;;;;;14.75;7.72;;;;;;;7.71;58.51;99751.11;1743086;82;20961;-37
2021/10/18 06:53:17;;;;;;;13.08;7.72;;;;;;;7.70;58.46;99749.53;1743183;82;21057;-37
2021/10/18 06:55:43;;;;;;;12.00;7.53;;;;;;;7.69;58.50;99751.47;1707360;83;21084;-37
2021/10/18 06:58:10;;;;;;;17.50;8.25;;;;;;;7.71;58.62;99754.60;1707277;84;21014;-37
2021/10/18 07:00:37;;;;;;;16.60;8.40;;;;;;;7.72;58.57;99754.84;1743024;82;21843;-36
2021/10/18 07:03:04;;;;;;;16.80;8.70;;;;;;;7.75;58.52;99757.42;1707034;84;20997;-37
2021/10/18 07:05:32;;;;;;;17.80;8.85;;;;;;;7.77;58.54;99762.73;1742880;81;21501;-37
2021/10/18 07:08:01;;;;;;;15.78;9.13;;;;;;;7.80;58.42;99768.02;1707375;84;20965;-37
2021/10/18 07:10:27;;;;;;;15.88;8.78;;;;;;;7.80;58.35;99766.67;1707302;84;21052;-37
2021/10/18 07:12:54;;;;;;;21.82;9.88;;;;;;;7.81;58.43;99775.00;1707244;84;21273;-37
2021/10/18 07:15:20;;;;;;;16.37;10.00;;;;;;;7.82;58.35;99767.14;1707106;84;20981;-37
2021/10/18 07:17:47;;;;;;;19.23;9.23;;;;;;;7.82;58.35;99767.14;1743030;82;21520;-37
2021/10/18 07:20:14;;;;;;;19.77;10.43;;;;;;;7.82;58.33;99752.30;1742915;82;21009;-36
2021/10/18 07:22:44;;;;;;;16.52;8.50;;;;;;;7.85;58.44;99757.02;1743001;82;20978;-37
2021/10/18 07:25:14;;;;;;;17.80;8.90;;;;;;;7.89;58.47;99762.57;1743028;82;21930;-37
2021/10/18 07:27:43;;;;;;;14.93;9.40;;;;;;;7.95;58.47;99767.41;1707317;84;21015;-37
2021/10/18 07:30:10;;;;;;;15.08;8.38;;;;;;;8.01;58.28;99756.64;1743258;81;21001;-36
2021/10/18 07:32:40;;;;;;;15.75;8.90;;;;;;;8.09;58.14;99759.81;1743231;81;21009;-36
2021/10/18 07:35:08;;;;;;;19.50;8.98;;;;;;;8.15;57.84;99762.53;1707598;83;21068;-36
2021/10/18 07:37:35;;;;;;;17.00;8.70;;;;;;;8.19;57.70;99762.09;1746082;81;21896;-36
2021/10/18 07:40:01;;;;;;;17.50;8.95;;;;;;;8.24;57.66;99757.83;1756728;81;20993;-36
2021/10/18 07:42:28;;;;;;;16.05;8.98;;;;;;;8.28;57.76;99749.28;1720537;83;20921;-37
2021/10/18 07:44:55;;;;;;;17.30;8.80;;;;;;;8.36;57.72;99752.27;1720568;83;21550;-37
2021/10/18 07:47:21;;;;;;;18.12;8.88;;;;;;;8.43;57.69;99744.39;1720371;83;21078;-37
2021/10/18 07:49:49;;;;;;;18.17;9.40;;;;;;;8.51;57.66;99749.72;1720456;83;21074;-36
2021/10/18 07:52:16;;;;;;;15.32;9.00;;;;;;;8.57;56.79;99742.16;1720319;83;21076;-36
2021/10/18 07:54:43;;;;;;;23.07;9.88;;;;;;;8.60;56.82;99751.75;1720382;83;20957;-36
2021/10/18 07:57:10;;;;;;;21.70;10.18;;;;;;;8.61;56.58;99743.88;1720464;83;21016;-37
2021/10/18 07:59:38;;;;;;;17.12;9.03;;;;;;;8.65;56.99;99746.69;1702231;84;21014;-37
2021/10/18 08:02:05;;;;;;;17.35;8.88;;;;;;;8.69;57.19;99748.38;1702606;84;21174;-36
2021/10/18 08:04:32;;;;;;;15.25;8.88;;;;;;;8.76;56.61;99750.53;1702306;84;21685;-37
2021/10/18 08:06:58;;;;;;;12.58;9.20;;;;;;;8.81;56.63;99748.16;1702297;84;21034;-37
2021/10/18 08:09:26;;;;;;;18.20;9.00;;;;;;;8.84;56.81;99749.63;1702264;84;21524;-37
2021/10/18 08:11:54;;;;;;;15.32;9.05;;;;;;;8.87;56.35;99748.94;1702383;84;21543;-37
2021/10/18 08:14:21;;;;;;;21.55;9.50;;;;;;;8.91;56.46;99742.28;1702326;84;21156;-37
2021/10/18 08:16:47;;;;;;;17.17;9.48;;;;;;;8.97;56.63;99749.05;1702421;84;21555;-36
2021/10/18 08:19:15;;;;;;;15.28;9.05;;;;;;;9.05;56.44;99748.16;1702347;84;20970;-37
2021/10/18 08:21:42;;;;;;;18.05;9.55;;;;;;;9.12;56.26;99749.16;1702488;84;20970;-37
2021/10/18 08:24:09;;;;;;;18.30;9.93;;;;;;;9.21;55.92;99754.43;1702400;84;21054;-37
2021/10/18 08:26:35;;;;;;;15.40;8.90;;;;;;;9.26;55.29;99748.00;1702407;84;21146;-36
2021/10/18 08:29:03;;;;;;;22.42;9.60;;;;;;;9.28;55.36;99753.87;1702387;84;21086;-37
2021/10/18 08:31:30;;;;;;;21.15;9.68;;;;;;;9.28;55.39;99747.11;1702586;84;21540;-36
2021/10/18 08:33:57;;;;;;;19.02;9.23;;;;;;;9.31;55.70;99754.53;1702493;84;21591;-36
2021/10/18 08:36:24;;;;;;;16.80;9.30;;;;;;;9.38;55.73;99747.99;1702477;84;21053;-36
2021/10/18 08:38:52;;;;;;;15.05;9.50;;;;;;;9.48;55.38;99742.89;1697627;84;21084;-37
2021/10/18 08:46:25;;;;;;;18.67;9.78;;;;;;;9.78;54.75;99739.28;1693863;84;21066;-37
2021/10/18 08:48:53;;;;;;;16.82;9.90;;;;;;;9.83;54.24;99743.66;1694144;84;21037;-37
2021/10/18 08:51:20;;;;;;;16.57;9.73;;;;;;;9.83;54.45;99729.55;1693838;84;21135;-36
2021/10/18 08:53:46;;;;;;;17.90;9.95;;;;;;;9.85;54.19;99736.78;1694100;84;20982;-36
2021/10/18 08:56:13;;;;;;;13.65;8.88;;;;;;;9.88;54.21;99738.00;1693927;84;21058;-37
2021/10/18 08:58:40;;;;;;;14.18;9.30;;;;;;;9.89;53.99;99730.89;1694098;84;21186;-37
2021/10/18 09:01:07;;;;;;;14.45;8.58;;;;;;;9.95;53.96;99730.87;1694179;84;21022;-37
2021/10/18 09:03:35;;;;;;;16.23;9.23;;;;;;;10.04;54.45;99729.35;1694187;84;21157;-37
2021/10/18 09:06:14;;;;;;;17.92;10.00;;;;;;;10.14;53.75;99734.84;1694095;84;21619;-36
2021/10/18 09:08:47;;;;;;;14.73;7.08;;;;;;;10.21;53.44;99735.06;1707541;84;20929;-37
2021/10/18 09:11:20;;;;;;;19.45;9.80;;;;;;;10.27;53.37;99733.09;1707234;84;22052;-37
2021/10/18 09:14:00;;;;;;;15.93;9.68;;;;;;;10.34;52.70;99737.91;1743467;82;21045;-37
2021/10/18 09:16:44;;;;;;;15.90;9.18;;;;;;;10.36;52.74;99734.30;1743494;81;25241;-37
2021/10/18 09:19:15;;;;;;;19.80;9.63;;;;;;;10.42;53.39;99730.17;1743346;81;20990;-36
2021/10/18 09:21:51;;;;;;;16.95;9.33;;;;;;;10.52;53.15;99724.23;1707559;83;21508;-37
2021/10/18 09:24:36;;;;;;;16.50;9.43;;;;;;;10.66;53.13;99730.00;1741346;81;21016;-37
2021/10/18 09:27:09;;;;;;;17.05;9.50;;;;;;;10.76;52.07;99733.55;1743170;82;21092;-37
2021/10/18 09:29:44;;;;;;;15.58;8.58;;;;;;;10.81;51.97;99726.50;1743306;82;21977;-37
2021/10/18 09:32:08;;;;;;;17.00;9.60;;;;;;;10.85;52.01;99723.30;1707063;84;21071;-37
2021/10/18 09:34:36;;;;;;;15.18;8.30;;;;;;;10.96;52.14;99724.11;1707383;84;20997;-37
2021/10/18 09:37:09;;;;;;;13.43;8.83;;;;;;;11.03;51.51;99722.93;1743125;82;21108;-37
2021/10/18 09:39:47;;;;;;;17.23;8.63;;;;;;;11.11;51.44;99713.80;1713197;83;21028;-37
2021/10/18 09:42:19;;;;;;;15.10;8.75;;;;;;;11.19;50.86;99712.23;1751030;82;21175;-37
2021/10/18 09:45:18;;;;;;;14.47;8.40;;;;;;;11.25;50.42;99710.05;1715268;83;20996;-37
2021/10/18 10:53:48;;;;;;;10.70;6.00;;;;;;;11.86;47.31;99679.51;1743132;81;21119;-37
2021/10/18 10:56:27;;;;;;;12.25;6.17;;;;;;;11.90;47.44;99677.64;1742768;81;20924;-37
2021/10/18 10:59:12;;;;;;;13.20;6.42;;;;;;;11.93;47.54;99672.83;1707710;84;21005;-37
2021/10/18 11:01:59;;;;;;;12.43;6.35;;;;;;;11.98;47.44;99681.47;1743200;81;21665;-37
2021/10/18 11:04:37;;;;;;;11.45;6.17;;;;;;;12.03;47.85;99680.39;1707639;83;20992;-37
2021/10/18 11:07:14;;;;;;;14.98;6.33;;;;;;;12.08;47.13;99681.45;1743481;81;21028;-37
2021/10/18 11:09:46;;;;;;;12.90;6.00;;;;;;;12.13;47.17;99680.59;1701327;84;20969;-37
2021/10/18 11:12:31;;;;;;;9.50;5.97;;;;;;;12.18;46.43;99682.22;1666485;86;21015;-37
2021/10/18 11:15:18;;;;;;;12.30;6.92;;;;;;;12.19;46.23;99678.36;1666412;86;21587;-37
2021/10/18 11:17:53;;;;;;;13.53;6.03;;;;;;;12.19;46.58;99680.51;1679105;85;20970;-37
2021/10/18 11:20:23;;;;;;;17.98;8.03;;;;;;;12.19;46.35;99674.28;1678946;85;21139;-37
2021/10/18 11:22:57;;;;;;;12.43;6.70;;;;;;;12.22;46.76;99673.55;1679450;85;21501;-37
2021/10/18 11:25:31;;;;;;;14.95;7.17;;;;;;;12.27;46.14;99670.53;1678400;85;21053;-37
2021/10/18 11:28:00;;;;;;;13.00;6.65;;;;;;;12.27;46.40;99673.25;1678992;85;21362;-37
2021/10/18 11:30:29;;;;;;;14.50;6.60;;;;;;;12.25;46.55;99666.02;1678722;85;21061;-37
2021/10/18 11:33:13;;;;;;;11.57;6.65;;;;;;;12.26;46.01;99666.80;1679329;85;21116;-37
2021/10/18 11:35:40;;;;;;;11.75;6.35;;;;;;;12.23;46.09;99666.97;1675143;85;20998;-37
2021/10/18 11:38:10;;;;;;;10.90;7.10;;;;;;;12.19;46.06;99663.41;1678976;85;21058;-37
2021/10/18 11:40:44;;;;;;;11.55;7.10;;;;;;;12.14;45.68;99659.63;1678453;85;21610;-37
2021/10/18 11:43:12;;;;;;;13.30;6.72;;;;;;;12.05;45.44;99663.16;1679029;85;21097;-37
2021/10/18 11:45:43;;;;;;;18.20;7.37;;;;;;;11.96;45.93;99665.30;1678840;85;21123;-37
2021/10/18 11:48:20;;;;;;;10.35;6.60;;;;;;;11.90;46.38;99658.05;1678328;85;21559;-37
2021/10/18 11:50:54;;;;;;;14.98;7.30;;;;;;;11.88;46.66;99658.97;1681664;84;21040;-37
2021/10/18 11:53:26;;;;;;;12.03;7.25;;;;;;;11.87;47.12;99657.39;1697731;84;21017;-37
2021/10/18 11:55:57;;;;;;;14.65;7.00;;;;;;;11.90;47.33;99659.98;1697511;84;21013;-37
2021/10/18 11:58:32;;;;;;;14.73;7.22;;;;;;;11.95;47.27;99661.04;1697905;84;21173;-37
2021/10/18 12:01:06;;;;;;;10.93;7.25;;;;;;;11.96;47.14;99659.87;1696803;84;21103;-37
2021/10/18 12:03:35;;;;;;;12.68;6.67;;;;;;;11.97;46.94;99667.67;1697658;84;20993;-37
2021/10/18 12:06:05;;;;;;;14.95;7.53;;;;;;;11.96;46.76;99661.23;1697374;84;21021;-37
2021/10/18 12:08:34;;;;;;;10.10;6.40;;;;;;;11.94;47.08;99653.45;1696784;84;21020;-37
2021/10/18 12:11:09;;;;;;;13.30;7.00;;;;;;;11.92;46.85;99657.09;1697399;84;20937;-37
2021/10/18 12:13:40;;;;;;;12.63;6.87;;;;;;;11.90;47.17;99657.27;1697644;84;21000;-37
2021/10/18 12:16:19;;;;;;;21.73;8.25;;;;;;;11.89;47.11;99652.39;1697455;84;21040;-37
2021/10/18 12:18:58;;;;;;;14.53;7.50;;;;;;;11.88;47.15;99658.18;1696419;84;20981;-37
2021/10/18 12:21:35;;;;;;;12.50;6.90;;;;;;;11.88;47.21;99660.90;1697326;84;21009;-37
2021/10/18 12:24:13;;;;;;;13.58;6.72;;;;;;;11.86;47.17;99658.53;1697446;84;21202;-37
2021/10/18 12:26:43;;;;;;;11.57;7.03;;;;;;;11.83;46.75;99655.76;1697370;84;21857;-37
2021/10/18 12:29:11;;;;;;;10.63;7.00;;;;;;;11.80;46.95;99659.20;1697755;84;21491;-37
2021/10/18 12:31:44;;;;;;;14.45;7.78;;;;;;;11.76;47.29;99657.79;1697306;84;21076;-37
2021/10/18 12:34:22;;;;;;;12.45;7.20;;;;;;;11.75;47.65;99655.64;1697592;84;20989;-36
2021/10/18 12:37:11;;;;;;;13.68;7.70;;;;;;;11.75;47.81;99657.56;1697425;84;21142;-37
2021/10/18 12:39:50;;;;;;;13.05;7.17;;;;;;;11.74;47.78;99654.06;1698894;84;20982;-38
2021/10/18 12:42:31;;;;;;;13.30;7.17;;;;;;;11.72;47.67;99650.91;1687484;85;21004;-37
2021/10/18 12:45:10;;;;;;;;;;;;;;;11.70;47.95;99657.27;1689849;84;21008;-36
2021/10/18 12:47:50;;;;;;;13.15;7.65;;;;;;;11.67;48.26;99662.03;1687302;85;20193;-38
2021/10/18 12:50:25;;;;;;;15.72;8.53;;;;;;;11.54;48.37;99655.19;1663110;85;21062;-37
2021/10/18 12:53:01;;;;;;;23.20;8.48;;;;;;;11.54;48.35;99651.12;1673609;85;20989;-37